Time;durP1;ratioP1;P1;durP2;ratioP2;P2;SDS_P1;SDS_P2;PMS_P1;PMS_P2;Temp;Humidity;BMP_temperature;BMP_pressure;BME280_temperature;BME280_humidity;BME280_pressure;Samples;Min_cycle;Max_cycle;Signal;HPM_P1;HPM_P2
2021/12/11 00:02:12;;;;;;;186.93;22.92;;;;;;;0.85;86.38;92605.91;5104249;28;20038;-46
2021/12/11 00:04:40;;;;;;;142.93;41.28;;;;;;;0.89;86.31;92595.53;5099292;28;20043;-46
2021/12/11 00:07:10;;;;;;;157.73;35.55;;;;;;;0.98;85.04;92587.03;5103025;28;20047;-40
2021/12/11 00:09:39;;;;;;;96.75;29.27;;;;;;;0.90;84.58;92586.88;5100558;28;20027;-40
2021/12/11 00:12:14;;;;;;;96.50;31.20;;;;;;;0.81;85.05;92597.31;5102074;28;20055;-44
2021/12/11 00:14:43;;;;;;;87.93;27.95;;;;;;;0.77;85.02;92608.47;5100493;28;20036;-44
2021/12/11 00:17:09;;;;;;;;;;;;;;;0.79;85.26;92611.41;5102888;28;20027;-47
2021/12/11 00:19:37;;;;;;;51.88;21.50;;;;;;;0.59;85.28;92607.13;5101227;28;19974;-43
2021/12/11 00:22:19;;;;;;;81.82;23.85;;;;;;;0.73;85.58;92608.75;5100937;27;20114;-44
2021/12/11 00:24:44;;;;;;;49.03;25.45;;;;;;;0.60;84.48;92586.88;5103319;28;20034;-46
2021/12/11 00:27:23;;;;;;;41.20;25.42;;;;;;;0.69;85.04;92610.25;5102166;28;20090;-44
2021/12/11 00:29:49;;;;;;;45.30;24.95;;;;;;;0.66;84.48;92608.53;5103156;28;20528;-43
2021/12/11 00:32:24;;;;;;;50.47;26.60;;;;;;;0.70;85.00;92617.16;5100166;28;20032;-44
2021/12/11 00:34:51;;;;;;;61.35;25.42;;;;;;;0.80;84.94;92618.31;5101246;28;20050;-45
2021/12/11 00:37:19;;;;;;;87.85;32.67;;;;;;;0.71;85.39;92615.94;5100270;28;20039;-44
2021/12/11 00:39:49;;;;;;;87.10;28.17;;;;;;;0.56;84.70;92626.41;5100738;28;20390;-46
2021/12/11 00:42:14;;;;;;;51.67;23.52;;;;;;;0.61;84.24;92622.91;5097599;28;20153;-47
2021/12/11 00:44:53;;;;;;;73.72;26.77;;;;;;;0.60;84.05;92629.59;5101634;28;20135;-46
2021/12/11 00:47:23;;;;;;;48.85;25.02;;;;;;;0.47;83.81;92626.72;5100424;28;20036;-47
2021/12/11 00:49:50;;;;;;;;;;;;;;;0.25;84.51;92627.59;5101158;28;20031;-45
2021/12/11 00:52:16;;;;;;;47.80;25.15;;;;;;;-0.10;86.13;92624.78;5098626;28;19938;-44
2021/12/11 00:54:45;;;;;;;50.00;22.65;;;;;;;-0.24;86.52;92623.84;5103213;28;20042;-45
2021/12/11 00:57:12;;;;;;;91.05;28.08;;;;;;;-0.04;86.77;92614.66;5100746;28;20024;-46
2021/12/11 00:59:38;;;;;;;54.10;25.83;;;;;;;-0.06;86.50;92615.16;5098598;28;20534;-46
2021/12/11 01:02:04;;;;;;;49.35;25.05;;;;;;;-0.02;86.16;92612.16;5099462;28;20165;-44
2021/12/11 01:04:41;;;;;;;53.05;27.88;;;;;;;0.03;85.41;92619.56;5099890;28;20032;-48
2021/12/11 01:07:22;;;;;;;49.15;25.23;;;;;;;-0.13;86.38;92604.81;5100584;28;20503;-48
2021/12/11 01:09:56;;;;;;;42.83;23.80;;;;;;;0.07;85.91;92609.16;5102602;28;20027;-48
2021/12/11 01:12:49;;;;;;;28.30;17.70;;;;;;;0.27;84.79;92594.50;5100099;28;20488;-45
2021/12/11 01:15:30;;;;;;;27.90;17.63;;;;;;;0.26;84.02;92590.31;5100130;28;20032;-46
2021/12/11 01:21:12;;;;;;;35.97;19.40;;;;;;;0.31;84.38;92594.97;5098344;28;20052;-45
2021/12/11 01:26:14;;;;;;;50.90;26.95;;;;;;;0.11;85.85;92589.91;5099367;28;20110;-43
2021/12/11 01:28:40;;;;;;;55.08;29.85;;;;;;;0.30;86.09;92585.34;5102604;28;20103;-45
2021/12/11 01:31:08;;;;;;;62.65;29.27;;;;;;;0.31;85.58;92581.38;5099371;28;20575;-46
2021/12/11 01:33:34;;;;;;;61.83;30.58;;;;;;;0.19;85.43;92569.88;5100144;28;20505;-43
2021/12/11 01:36:00;;;;;;;55.88;24.50;;;;;;;-0.02;85.22;92560.63;5099221;28;20034;-47
2021/12/11 01:38:28;;;;;;;42.92;23.70;;;;;;;-0.11;85.87;92558.22;5101289;28;20035;-44
2021/12/11 01:41:00;;;;;;;46.88;22.00;;;;;;;-0.09;85.97;92561.88;5101189;28;20023;-45
2021/12/11 01:43:28;;;;;;;79.22;36.85;;;;;;;-0.13;86.39;92545.13;5097158;28;20023;-45
2021/12/11 01:45:56;;;;;;;47.55;22.27;;;;;;;-0.21;86.21;92555.06;5097967;28;20135;-42
2021/12/11 01:48:26;;;;;;;38.90;19.30;;;;;;;-0.18;86.81;92551.34;5099363;28;20141;-44
2021/12/11 01:51:04;;;;;;;59.55;31.25;;;;;;;-0.03;87.09;92554.47;5097863;28;20089;-43
2021/12/11 01:53:40;;;;;;;33.00;18.15;;;;;;;0.20;86.88;92559.75;5099722;28;20034;-45
2021/12/11 01:56:10;;;;;;;23.55;14.40;;;;;;;0.35;86.12;92558.16;5100319;28;20031;-44
2021/12/11 01:58:40;;;;;;;44.55;25.40;;;;;;;0.28;86.19;92558.69;5098603;28;20084;-47
2021/12/11 02:01:14;;;;;;;60.45;34.15;;;;;;;0.42;84.49;92554.91;5100567;28;20054;-46
2021/12/11 02:03:40;;;;;;;64.03;34.92;;;;;;;0.39;84.35;92545.03;5097864;28;20042;-50
2021/12/11 02:06:06;;;;;;;48.60;28.10;;;;;;;0.34;83.92;92547.81;5097502;28;20047;-46
2021/12/11 02:08:36;;;;;;;46.95;27.83;;;;;;;0.31;84.25;92548.81;5098238;28;20432;-44
2021/12/11 02:11:04;;;;;;;;;;;;;;;0.23;84.11;92547.88;5100237;28;20413;-45
2021/12/11 02:13:42;;;;;;;33.05;17.88;;;;;;;0.26;84.03;92544.88;5098558;28;19912;-45
2021/12/11 02:16:46;;;;;;;27.13;17.13;;;;;;;0.16;84.08;92548.41;5097938;28;20061;-45
2021/12/11 02:19:29;;;;;;;33.97;19.65;;;;;;;0.31;84.65;92548.81;5098470;28;20046;-44
2021/12/11 02:22:09;;;;;;;36.10;20.95;;;;;;;0.45;82.83;92555.88;5096499;28;20020;-48
2021/12/11 02:24:45;;;;;;;23.95;16.40;;;;;;;0.44;82.98;92544.28;5098328;28;20035;-47
2021/12/11 02:27:20;;;;;;;28.15;17.60;;;;;;;0.32;83.15;92536.72;5093874;28;20034;-44
2021/12/11 02:29:52;;;;;;;31.38;19.45;;;;;;;0.12;84.48;92545.25;5099665;28;20032;-44
2021/12/11 02:32:33;;;;;;;26.85;16.67;;;;;;;0.13;85.02;92541.31;5104862;28;20030;-45
2021/12/11 02:35:26;;;;;;;13.35;8.32;;;;;;;0.28;86.97;92547.13;5102782;28;20059;-44
2021/12/11 02:38:09;;;;;;;12.73;8.90;;;;;;;0.49;89.55;92538.06;5103533;28;20040;-47
2021/12/11 02:40:52;;;;;;;10.57;6.43;;;;;;;0.68;90.33;92538.16;5101374;28;20031;-46
2021/12/11 02:43:21;;;;;;;7.13;5.45;;;;;;;0.76;91.14;92534.38;5102281;28;20023;-44
2021/12/11 02:46:22;;;;;;;9.30;5.40;;;;;;;0.77;91.00;92543.25;5102463;28;20043;-47
2021/12/11 02:48:52;;;;;;;9.30;6.20;;;;;;;0.81;89.78;92551.13;5083352;28;20497;-45
2021/12/11 02:51:48;;;;;;;7.72;5.85;;;;;;;0.83;89.49;92557.53;5103801;28;20035;-49
2021/12/11 02:54:20;;;;;;;9.07;5.55;;;;;;;0.81;88.95;92556.56;5072789;28;20058;-44
2021/12/11 02:56:51;;;;;;;10.18;7.55;;;;;;;0.76;90.14;92533.63;5102122;28;20523;-42
2021/12/11 02:59:22;;;;;;;7.55;5.18;;;;;;;0.83;89.62;92500.47;5101117;28;20497;-44
2021/12/11 03:01:51;;;;;;;5.38;4.25;;;;;;;1.22;89.74;92519.81;5100074;28;20104;-43
2021/12/11 03:04:48;;;;;;;5.93;3.92;;;;;;;1.30;90.11;92526.16;5103178;28;20503;-46
2021/12/11 03:07:13;;;;;;;5.38;3.92;;;;;;;1.37;89.05;92528.31;5102577;28;20089;-46
2021/12/11 03:09:42;;;;;;;7.55;4.85;;;;;;;1.41;89.16;92519.84;5102482;28;20451;-48
2021/12/11 03:12:10;;;;;;;7.45;4.45;;;;;;;1.42;88.76;92505.03;5105018;28;20667;-47
2021/12/11 03:14:36;;;;;;;8.05;5.38;;;;;;;1.39;88.54;92501.34;5103236;28;20039;-46
2021/12/11 03:17:02;;;;;;;6.28;4.40;;;;;;;1.52;88.30;92492.53;5101392;28;20062;-46
2021/12/11 03:19:30;;;;;;;7.07;4.40;;;;;;;1.59;88.15;92486.50;5103096;28;20428;-48
2021/12/11 03:21:57;;;;;;;34.30;5.93;;;;;;;1.69;87.20;92481.44;5103094;28;20043;-48
2021/12/11 03:24:24;;;;;;;5.43;3.65;;;;;;;1.60;87.58;92466.22;5103080;28;20027;-46
2021/12/11 03:26:51;;;;;;;6.03;4.22;;;;;;;1.78;87.79;92483.78;5103421;28;20568;-44
2021/12/11 03:29:17;;;;;;;5.13;3.67;;;;;;;1.86;87.11;92479.22;5102553;27;20107;-46
2021/12/11 03:31:44;;;;;;;6.70;4.88;;;;;;;1.82;87.33;92482.22;5103339;28;20095;-49
2021/12/11 03:34:13;;;;;;;9.15;7.35;;;;;;;1.83;86.96;92480.25;5102785;28;20023;-46
2021/12/11 03:36:40;;;;;;;9.32;6.07;;;;;;;1.82;86.82;92474.06;5104444;28;20035;-45
2021/12/11 03:39:18;;;;;;;11.13;6.13;;;;;;;1.81;86.98;92452.81;5101301;28;20028;-45
2021/12/11 03:41:46;;;;;;;5.88;4.03;;;;;;;1.86;87.06;92458.19;5099882;28;20160;-48
2021/12/11 03:44:12;;;;;;;13.30;3.35;;;;;;;1.93;85.84;92433.09;5102102;27;20045;-44
2021/12/11 03:46:38;;;;;;;4.22;1.90;;;;;;;2.27;84.87;92452.38;5103170;28;20093;-45
2021/12/11 03:49:08;;;;;;;2.13;1.77;;;;;;;2.40;83.50;92446.97;5103817;28;20028;-46
2021/12/11 03:51:36;;;;;;;21.02;3.13;;;;;;;2.60;81.59;92437.47;5101897;28;20027;-43
2021/12/11 03:54:04;;;;;;;5.40;1.92;;;;;;;2.62;82.14;92438.41;5103822;28;20088;-45
2021/12/11 03:56:30;;;;;;;2.65;2.40;;;;;;;2.77;81.27;92433.16;5103021;28;20070;-45
2021/12/11 03:58:56;;;;;;;2.60;1.98;;;;;;;2.83;80.32;92442.00;5102672;27;20067;-44
2021/12/11 04:01:33;;;;;;;2.20;1.98;;;;;;;2.91;79.63;92434.66;5101028;28;20031;-44
2021/12/11 04:04:09;;;;;;;2.95;2.35;;;;;;;2.93;79.79;92437.59;5103827;28;20058;-44
2021/12/11 04:06:35;;;;;;;2.10;1.83;;;;;;;3.03;79.18;92440.66;5101752;28;20046;-44
2021/12/11 04:09:02;;;;;;;27.98;4.13;;;;;;;3.14;77.54;92434.97;5099852;28;20019;-44
2021/12/11 04:11:30;;;;;;;2.38;1.52;;;;;;;3.18;77.58;92440.84;5103898;28;20035;-47
2021/12/11 04:14:01;;;;;;;2.13;1.83;;;;;;;3.22;77.67;92451.44;5102112;27;20070;-46
2021/12/11 04:16:27;;;;;;;2.95;2.53;;;;;;;3.23;77.01;92447.47;5104824;28;20019;-45
2021/12/11 04:18:52;;;;;;;1.58;1.40;;;;;;;3.32;76.53;92452.47;5102363;28;20020;-48
2021/12/11 04:21:18;;;;;;;2.20;1.52;;;;;;;3.26;76.98;92438.94;5103361;28;20500;-45
2021/12/11 04:23:45;;;;;;;1.50;1.40;;;;;;;3.31;77.04;92437.38;5102039;28;20024;-45
2021/12/11 04:26:11;;;;;;;1.20;1.10;;;;;;;3.41;76.12;92447.34;5102352;28;20509;-45
2021/12/11 04:28:41;;;;;;;1.10;1.08;;;;;;;3.47;75.90;92458.84;5100943;28;20073;-45
2021/12/11 04:31:11;;;;;;;1.98;1.23;;;;;;;3.47;76.06;92461.59;5102124;28;20043;-45
2021/12/11 04:33:41;;;;;;;1.77;1.27;;;;;;;3.47;76.29;92472.50;5101151;28;20519;-44
2021/12/11 04:36:11;;;;;;;1.55;1.23;;;;;;;3.58;75.49;92480.47;5098848;28;20019;-42
2021/12/11 04:38:38;;;;;;;1.20;1.10;;;;;;;3.70;74.86;92470.06;5099054;28;20031;-43
2021/12/11 04:41:05;;;;;;;1.33;1.23;;;;;;;3.60;75.80;92475.22;5100249;28;20027;-46
2021/12/11 04:43:31;;;;;;;1.55;1.45;;;;;;;3.39;75.99;92462.75;5100568;28;20515;-45
2021/12/11 04:46:07;;;;;;;1.80;1.27;;;;;;;3.47;76.27;92472.50;5104434;28;20063;-44
2021/12/11 04:51:27;;;;;;;1.70;1.15;;;;;;;3.36;79.24;92453.63;5101460;28;20028;-50
2021/12/11 04:54:07;;;;;;;2.35;1.58;;;;;;;3.38;77.25;92447.66;5098847;28;20492;-45
2021/12/11 05:02:30;;;;;;;1.33;1.23;;;;;;;3.45;77.69;92436.09;5100667;28;20032;-48
2021/12/11 05:10:15;;;;;;;1.10;1.00;;;;;;;3.68;75.99;92434.38;5102960;28;20031;-47
2021/12/11 05:12:42;;;;;;;1.60;1.50;;;;;;;3.41;75.74;92398.22;5101438;28;20019;-49
2021/12/11 05:15:12;;;;;;;1.58;1.17;;;;;;;3.60;76.42;92406.25;5099964;28;20111;-47
2021/12/11 05:17:38;;;;;;;1.63;1.20;;;;;;;3.64;75.41;92396.47;5098878;28;20035;-46
2021/12/11 05:20:08;;;;;;;1.10;1.00;;;;;;;3.56;77.12;92390.22;5098533;28;20447;-48
2021/12/11 05:22:33;;;;;;;1.70;1.30;;;;;;;3.57;76.01;92383.47;5101585;28;20024;-48
2021/12/11 05:24:59;;;;;;;0.85;0.85;;;;;;;3.69;75.45;92375.78;5099610;28;20500;-50
2021/12/11 05:27:25;;;;;;;1.35;1.25;;;;;;;3.71;75.06;92374.00;5098655;28;20077;-48
2021/12/11 05:29:51;;;;;;;1.10;1.00;;;;;;;3.65;75.92;92383.56;5100117;28;20454;-46
2021/12/11 05:32:20;;;;;;;0.82;0.82;;;;;;;3.72;74.93;92388.38;5098855;28;20054;-47
2021/12/11 05:34:45;;;;;;;1.98;1.35;;;;;;;3.75;74.69;92382.59;5097838;28;20034;-46
2021/12/11 05:37:11;;;;;;;1.05;0.80;;;;;;;3.86;74.01;92378.88;5099423;28;20428;-46
2021/12/11 05:39:37;;;;;;;1.73;1.02;;;;;;;3.84;74.04;92375.94;5098939;28;20020;-48
2021/12/11 05:42:03;;;;;;;1.30;1.20;;;;;;;3.79;75.22;92368.59;5099566;28;20020;-46
2021/12/11 05:44:28;;;;;;;1.30;1.13;;;;;;;3.79;74.38;92365.88;5100886;28;20427;-48
2021/12/11 05:46:54;;;;;;;6.95;2.00;;;;;;;3.78;73.10;92358.94;5100402;28;20035;-48
2021/12/11 05:49:22;;;;;;;0.55;0.55;;;;;;;3.93;72.16;92352.91;5100708;27;20580;-48
2021/12/11 05:51:49;;;;;;;2.35;0.80;;;;;;;4.04;72.26;92372.50;5099570;28;20062;-47
2021/12/11 05:54:20;;;;;;;1.35;1.08;;;;;;;4.02;72.30;92364.09;5099613;28;20031;-49
2021/12/11 05:56:46;;;;;;;1.30;1.08;;;;;;;4.05;71.70;92367.78;5099768;28;20032;-49
2021/12/11 05:59:13;;;;;;;1.90;1.30;;;;;;;3.96;73.30;92387.34;5099960;28;20493;-46
2021/12/11 06:01:49;;;;;;;1.40;1.20;;;;;;;4.00;72.11;92369.38;5099790;28;20059;-47
2021/12/11 06:04:26;;;;;;;1.58;1.23;;;;;;;4.01;72.74;92367.34;5099008;28;20424;-46
2021/12/11 06:06:53;;;;;;;4.30;1.73;;;;;;;4.02;72.43;92372.28;5100661;28;20023;-43
2021/12/11 06:09:20;;;;;;;2.60;1.58;;;;;;;4.05;72.27;92387.59;5099655;28;20127;-45
2021/12/11 06:11:49;;;;;;;2.05;1.35;;;;;;;4.07;71.61;92389.81;5097544;28;20067;-47
2021/12/11 06:14:17;;;;;;;33.47;3.93;;;;;;;4.17;71.00;92394.28;5100619;28;20031;-45
2021/12/11 06:16:44;;;;;;;3.05;1.52;;;;;;;4.19;70.76;92399.19;5098650;28;20036;-46
2021/12/11 06:19:09;;;;;;;2.95;1.40;;;;;;;4.29;69.89;92395.47;5099615;28;20024;-46
2021/12/11 06:21:36;;;;;;;4.70;1.35;;;;;;;4.28;70.20;92402.22;5099102;28;20076;-48
2021/12/11 06:24:02;;;;;;;2.55;1.83;;;;;;;4.39;69.70;92393.75;5102473;28;20032;-48
2021/12/11 06:26:28;;;;;;;16.45;3.80;;;;;;;4.34;70.30;92404.81;5099675;28;20027;-46
2021/12/11 06:28:54;;;;;;;4.72;2.88;;;;;;;4.33;69.79;92406.09;5100593;28;20038;-44
2021/12/11 06:31:19;;;;;;;1.48;1.38;;;;;;;4.42;68.92;92409.06;5097729;28;20032;-46
2021/12/11 06:33:50;;;;;;;3.03;1.50;;;;;;;4.51;68.63;92411.31;5099018;28;20027;-48
2021/12/11 06:36:17;;;;;;;2.30;1.95;;;;;;;4.46;69.35;92417.66;5099868;28;20035;-50
2021/12/11 06:38:47;;;;;;;25.25;16.88;;;;;;;4.46;68.82;92398.53;5101918;28;20036;-47
2021/12/11 06:41:15;;;;;;;3.80;2.90;;;;;;;4.53;68.52;92392.38;5102245;28;20115;-45
2021/12/11 06:43:41;;;;;;;2.22;1.75;;;;;;;4.65;68.07;92394.84;5099435;28;20028;-46
2021/12/11 06:46:08;;;;;;;4.85;1.95;;;;;;;4.61;68.39;92398.63;5098222;28;20428;-50
2021/12/11 06:48:34;;;;;;;1.48;1.30;;;;;;;4.50;68.55;92393.44;5098515;28;20030;-47
2021/12/11 06:51:00;;;;;;;1.27;1.02;;;;;;;4.68;67.53;92393.78;5100369;28;20024;-45
2021/12/11 06:53:34;;;;;;;1.13;1.00;;;;;;;4.67;67.50;92395.03;5100143;28;20019;-48
2021/12/11 06:56:00;;;;;;;1.15;1.08;;;;;;;4.45;68.38;92369.75;5102286;28;20023;-46
2021/12/11 06:58:27;;;;;;;17.33;5.18;;;;;;;4.63;67.61;92393.38;5097965;28;20023;-46
2021/12/11 07:00:54;;;;;;;1.25;1.05;;;;;;;4.63;67.36;92396.09;5098288;28;20154;-47
2021/12/11 07:03:19;;;;;;;1.20;1.10;;;;;;;4.65;67.97;92403.03;5100405;28;20500;-48
2021/12/11 07:05:45;;;;;;;1.02;0.88;;;;;;;4.71;67.69;92395.44;5100804;28;20035;-47
2021/12/11 07:08:16;;;;;;;5.00;2.08;;;;;;;4.70;67.84;92388.50;5099789;28;20475;-53
2021/12/11 07:10:42;;;;;;;4.00;1.85;;;;;;;4.69;67.23;92395.22;5100304;28;20068;-49
2021/12/11 07:13:09;;;;;;;2.22;1.63;;;;;;;4.77;66.63;92401.47;5097647;28;20042;-46
2021/12/11 07:15:35;;;;;;;2.05;1.30;;;;;;;4.88;66.24;92401.19;5097076;28;20031;-46
2021/12/11 07:18:01;;;;;;;1.95;1.33;;;;;;;5.01;65.93;92407.31;5102421;28;20024;-45
2021/12/11 07:20:27;;;;;;;1.15;1.00;;;;;;;5.05;65.87;92407.69;5099332;28;20028;-46
2021/12/11 07:22:54;;;;;;;3.80;1.27;;;;;;;5.14;65.07;92403.72;5100930;28;20670;-45
2021/12/11 07:25:56;;;;;;;2.13;1.27;;;;;;;5.27;65.48;92389.94;5101712;28;20043;-45
2021/12/11 07:28:23;;;;;;;1.15;0.90;;;;;;;5.26;64.03;92405.59;5059271;28;20066;-45
2021/12/11 07:30:51;;;;;;;4.05;1.55;;;;;;;5.39;65.05;92399.31;5092955;28;20096;-45
2021/12/11 07:33:17;;;;;;;1.20;1.10;;;;;;;5.63;63.33;92406.34;5104230;28;20023;-46
2021/12/11 07:35:44;;;;;;;1.00;0.90;;;;;;;5.68;63.51;92402.69;5102493;28;20023;-45
2021/12/11 07:38:09;;;;;;;1.85;1.00;;;;;;;5.68;62.62;92400.69;5102661;28;20088;-46
2021/12/11 07:40:40;;;;;;;3.25;1.65;;;;;;;5.81;62.47;92402.56;5101898;28;20499;-49
2021/12/11 07:43:06;;;;;;;0.82;0.80;;;;;;;5.88;61.74;92407.34;5103431;28;20023;-45
2021/12/11 07:45:34;;;;;;;1.95;1.20;;;;;;;5.92;61.61;92403.00;5104577;28;20436;-44
2021/12/11 07:48:00;;;;;;;3.40;1.55;;;;;;;5.92;62.75;92418.69;5099839;28;20515;-45
2021/12/11 07:50:26;;;;;;;1.40;1.10;;;;;;;5.92;62.12;92411.22;5102552;28;20042;-42
2021/12/11 07:52:52;;;;;;;1.67;1.10;;;;;;;6.07;61.80;92416.72;5101701;28;20030;-42
2021/12/11 07:55:17;;;;;;;1.73;1.30;;;;;;;6.05;61.89;92416.53;5099588;28;20517;-46
2021/12/11 07:57:43;;;;;;;0.70;0.68;;;;;;;6.16;60.71;92417.47;5099291;28;20054;-45
2021/12/11 08:00:12;;;;;;;2.17;1.42;;;;;;;6.12;62.15;92412.34;5101685;28;20029;-45
2021/12/11 08:02:38;;;;;;;1.13;0.55;;;;;;;6.13;60.90;92402.84;5099808;28;20128;-45
2021/12/11 08:05:05;;;;;;;1.85;0.90;;;;;;;6.22;61.17;92407.81;5098635;28;20487;-43
2021/12/11 08:07:30;;;;;;;2.28;0.80;;;;;;;6.32;60.81;92403.25;5099854;28;20031;-43
2021/12/11 08:09:56;;;;;;;0.95;0.88;;;;;;;6.36;60.98;92394.66;5099137;28;20028;-48
2021/12/11 08:12:22;;;;;;;1.20;1.10;;;;;;;6.48;60.78;92410.22;5098320;28;20026;-47
2021/12/11 08:14:49;;;;;;;1.02;0.73;;;;;;;6.58;60.38;92411.13;5098048;28;20033;-46
2021/12/11 08:17:16;;;;;;;1.20;0.98;;;;;;;6.73;60.62;92410.41;5098232;28;20462;-46
2021/12/11 08:19:42;;;;;;;1.60;0.98;;;;;;;6.88;59.91;92411.16;5095238;28;20039;-48
2021/12/11 08:22:11;;;;;;;1.42;1.00;;;;;;;7.54;58.42;92401.84;5098638;27;20035;-46
2021/12/11 08:24:39;;;;;;;1.45;0.90;;;;;;;8.05;57.26;92388.47;5098330;28;20146;-45
2021/12/11 08:27:10;;;;;;;1.90;0.93;;;;;;;8.28;56.19;92378.06;5096523;28;20032;-45
2021/12/11 08:29:37;;;;;;;4.10;1.02;;;;;;;8.20;55.37;92395.88;5097124;28;20016;-47
2021/12/11 08:32:04;;;;;;;3.85;1.30;;;;;;;8.23;56.26;92384.47;5097847;28;20569;-45
2021/12/11 08:34:30;;;;;;;2.15;1.95;;;;;;;8.49;56.13;92380.50;5097764;28;20031;-44
2021/12/11 08:36:56;;;;;;;2.35;0.88;;;;;;;8.62;55.09;92391.22;5097944;28;20082;-46
2021/12/11 08:39:22;;;;;;;1.83;0.80;;;;;;;8.72;55.51;92381.06;5098897;28;20580;-44
2021/12/11 08:41:50;;;;;;;2.15;0.80;;;;;;;8.71;54.80;92378.84;5099166;28;20080;-45
2021/12/11 08:44:17;;;;;;;0.80;0.80;;;;;;;8.46;55.99;92389.88;5097733;28;20016;-45
2021/12/11 08:46:51;;;;;;;0.95;0.70;;;;;;;8.52;55.30;92386.91;5098526;28;20076;-45
2021/12/11 08:49:21;;;;;;;2.05;0.80;;;;;;;8.39;55.08;92388.63;5097868;28;20023;-43
2021/12/11 08:51:51;;;;;;;1.00;0.57;;;;;;;8.32;54.94;92369.44;5095650;28;20453;-44
2021/12/11 08:54:18;;;;;;;0.70;0.70;;;;;;;8.47;55.12;92385.13;5097414;28;22658;-46
2021/12/11 08:56:44;;;;;;;1.67;0.70;;;;;;;8.50;56.02;92370.22;5099949;28;20110;-43
2021/12/11 08:59:14;;;;;;;1.60;0.85;;;;;;;8.69;55.41;92390.44;5096354;28;20400;-44
2021/12/11 09:02:13;;;;;;;1.15;0.95;;;;;;;9.11;53.19;92390.47;5099772;28;20031;-46
2021/12/11 09:05:05;;;;;;;2.35;1.00;;;;;;;9.21;54.36;92388.53;5093088;28;20508;-45
2021/12/11 09:07:36;;;;;;;1.27;0.73;;;;;;;9.58;53.48;92384.66;5093960;28;20471;-44
2021/12/11 09:10:04;;;;;;;1.85;0.70;;;;;;;10.13;51.14;92383.47;5095862;28;20047;-49
2021/12/11 09:12:44;;;;;;;1.23;0.50;;;;;;;10.83;50.32;92371.63;5098398;28;20071;-46
2021/12/11 09:15:24;;;;;;;2.42;0.60;;;;;;;11.40;48.58;92358.66;5098068;28;20031;-44
2021/12/11 09:17:55;;;;;;;1.13;0.80;;;;;;;11.69;47.03;92360.72;5094553;28;20512;-46
2021/12/11 09:20:23;;;;;;;1.05;0.60;;;;;;;11.46;47.94;92347.28;5096084;28;20396;-44
2021/12/11 09:22:54;;;;;;;3.38;0.70;;;;;;;12.09;45.78;92356.03;5098189;28;20039;-45
2021/12/11 09:25:34;;;;;;;1.05;0.90;;;;;;;11.85;46.64;92345.28;5099543;28;20535;-46
2021/12/11 09:28:14;;;;;;;1.08;0.50;;;;;;;12.00;46.53;92354.00;5096783;28;20110;-44
2021/12/11 09:31:09;;;;;;;1.10;0.80;;;;;;;12.38;44.97;92344.91;5095836;28;20883;-46
2021/12/11 09:33:45;;;;;;;2.42;0.73;;;;;;;12.77;46.20;92351.75;5082821;28;20194;-45
2021/12/11 09:36:15;;;;;;;2.05;0.77;;;;;;;12.71;44.36;92354.09;5097282;28;20772;-44
2021/12/11 09:38:45;;;;;;;1.52;0.65;;;;;;;12.43;45.12;92357.69;5095896;28;20078;-44
2021/12/11 09:41:20;;;;;;;0.88;0.70;;;;;;;11.86;46.52;92344.72;5096510;28;20027;-44
2021/12/11 09:43:51;;;;;;;1.15;0.77;;;;;;;11.32;47.62;92343.50;5096646;28;20065;-41
2021/12/11 09:46:26;;;;;;;3.22;0.80;;;;;;;11.32;48.42;92354.56;5094513;28;20055;-44
2021/12/11 09:48:53;;;;;;;0.65;0.57;;;;;;;11.12;48.51;92353.81;5099332;28;20028;-45
2021/12/11 09:51:25;;;;;;;0.98;0.77;;;;;;;10.95;50.68;92348.38;5097553;28;20043;-43
2021/12/11 09:53:54;;;;;;;0.98;0.70;;;;;;;10.87;49.86;92347.75;5098008;28;20031;-43
2021/12/11 09:56:26;;;;;;;0.82;0.82;;;;;;;10.52;50.53;92349.25;5097894;28;20028;-45
2021/12/11 09:58:52;;;;;;;3.25;1.38;;;;;;;10.19;51.42;92339.81;5094330;28;20028;-47
2021/12/11 10:01:22;;;;;;;3.45;1.40;;;;;;;10.13;52.95;92339.34;5099964;28;20031;-45
2021/12/11 10:04:00;;;;;;;1.00;0.80;;;;;;;10.24;53.10;92336.81;5099765;28;20035;-46
2021/12/11 10:06:42;;;;;;;2.50;1.00;;;;;;;10.17;52.89;92317.59;5099013;28;20056;-46
2021/12/11 10:09:19;;;;;;;3.60;0.90;;;;;;;9.93;53.29;92322.66;5099323;28;20050;-44
2021/12/11 10:11:52;;;;;;;2.65;1.00;;;;;;;9.82;54.34;92314.19;5097857;28;20027;-44
2021/12/11 10:14:21;;;;;;;3.45;0.90;;;;;;;10.00;53.89;92312.84;5098424;28;20028;-45
2021/12/11 10:16:49;;;;;;;2.53;0.90;;;;;;;9.96;54.63;92314.56;5099702;28;20382;-45
2021/12/11 10:19:20;;;;;;;1.75;0.85;;;;;;;10.12;53.83;92304.78;5097821;28;20035;-45
2021/12/11 10:21:50;;;;;;;3.90;0.75;;;;;;;10.62;51.80;92309.34;5101533;28;20108;-45
2021/12/11 10:24:22;;;;;;;1.73;1.40;;;;;;;10.73;52.06;92293.53;5096493;28;20497;-44
2021/12/11 10:26:49;;;;;;;1.70;1.10;;;;;;;10.61;52.32;92313.41;5098165;28;20401;-45
2021/12/11 10:29:15;;;;;;;3.42;2.22;;;;;;;10.25;54.27;92305.16;5100073;28;20084;-45
2021/12/11 10:31:44;;;;;;;2.25;1.60;;;;;;;10.31;54.78;92307.66;5099499;28;20566;-47
2021/12/11 10:34:13;;;;;;;3.35;1.58;;;;;;;10.78;54.75;92320.16;5096971;28;20028;-46
2021/12/11 10:36:47;;;;;;;3.08;1.33;;;;;;;10.88;52.35;92316.09;5097733;28;20033;-48
2021/12/11 10:39:14;;;;;;;1.42;1.10;;;;;;;10.87;53.27;92297.34;5100722;28;20030;-48
2021/12/11 10:41:41;;;;;;;2.13;1.10;;;;;;;11.08;52.39;92312.06;5098367;28;20020;-47
2021/12/11 10:44:17;;;;;;;2.35;0.82;;;;;;;11.11;52.13;92299.16;5101917;28;20024;-48
2021/12/11 10:46:56;;;;;;;2.15;0.93;;;;;;;11.03;53.31;92320.63;5097753;28;20066;-52
2021/12/11 10:49:22;;;;;;;1.20;0.82;;;;;;;11.60;52.76;92292.31;5098724;28;20043;-51
2021/12/11 10:51:56;;;;;;;2.70;1.00;;;;;;;11.87;51.65;92306.69;5097984;28;20070;-48
2021/12/11 10:54:22;;;;;;;2.17;2.00;;;;;;;11.35;52.96;92303.66;5103355;28;20113;-45
2021/12/11 10:56:48;;;;;;;2.33;1.00;;;;;;;11.05;53.14;92302.19;5101776;28;20500;-45
2021/12/11 10:59:28;;;;;;;6.03;1.27;;;;;;;10.42;54.93;92307.09;5102426;28;20039;-48
2021/12/11 11:01:58;;;;;;;2.60;1.20;;;;;;;10.10;57.31;92288.06;5100370;28;20051;-49
2021/12/11 11:04:55;;;;;;;4.03;1.38;;;;;;;9.89;57.97;92280.28;5099453;28;20039;-50
2021/12/11 11:07:21;;;;;;;1.73;1.10;;;;;;;9.74;57.90;92288.75;5097651;28;20052;-48
2021/12/11 11:09:48;;;;;;;4.88;3.42;;;;;;;9.58;59.02;92277.19;5101623;28;20034;-48
2021/12/11 11:12:16;;;;;;;3.00;1.55;;;;;;;9.61;59.48;92283.59;5100002;28;20420;-45
2021/12/11 11:14:42;;;;;;;3.20;1.70;;;;;;;9.63;58.79;92278.22;5099248;28;20160;-46
2021/12/11 11:17:12;;;;;;;11.93;6.75;;;;;;;9.62;60.74;92274.00;5099134;28;20040;-47
2021/12/11 11:19:40;;;;;;;3.75;1.27;;;;;;;9.56;60.16;92276.28;5100137;28;20546;-46
2021/12/11 11:22:09;;;;;;;1.83;1.10;;;;;;;9.40;60.99;92275.75;5098952;28;20035;-50
2021/12/11 11:24:40;;;;;;;3.25;1.20;;;;;;;9.45;60.89;92266.50;5099902;28;20027;-46
2021/12/11 11:27:07;;;;;;;2.85;1.15;;;;;;;9.12;61.04;92218.44;5098822;28;20035;-51
2021/12/11 11:29:34;;;;;;;2.58;1.48;;;;;;;9.49;61.32;92275.09;5102431;28;21336;-48
2021/12/11 11:32:03;;;;;;;3.75;1.20;;;;;;;9.43;62.38;92260.09;5101892;28;20115;-48
2021/12/11 11:34:31;;;;;;;4.90;1.77;;;;;;;9.63;62.52;92258.94;5101163;28;20421;-47
2021/12/11 11:36:58;;;;;;;1.33;1.20;;;;;;;9.45;61.37;92244.47;5098339;28;20024;-47
2021/12/11 11:39:26;;;;;;;2.45;2.00;;;;;;;9.28;63.36;92246.53;5097162;28;20020;-43
2021/12/11 11:41:54;;;;;;;1.88;1.30;;;;;;;9.56;61.74;92243.97;5100859;28;20504;-46
2021/12/11 11:44:21;;;;;;;4.23;1.67;;;;;;;9.61;62.32;92240.22;5101521;28;20074;-44
2021/12/11 11:46:47;;;;;;;3.75;2.28;;;;;;;9.63;62.30;92248.66;5099548;28;21299;-46
2021/12/11 11:49:14;;;;;;;3.75;1.90;;;;;;;9.45;62.38;92233.44;5098034;28;20035;-44
2021/12/11 11:51:47;;;;;;;2.45;1.48;;;;;;;9.49;62.99;92231.00;5098334;28;20038;-45
2021/12/11 11:54:14;;;;;;;3.95;1.85;;;;;;;9.36;63.63;92200.31;5101741;28;20032;-48
2021/12/11 11:56:45;;;;;;;3.90;2.15;;;;;;;9.35;63.51;92212.66;5100134;28;20672;-46
2021/12/11 11:59:11;;;;;;;2.47;1.20;;;;;;;9.31;63.93;92220.59;5101700;28;20034;-44
2021/12/11 12:02:01;;;;;;;2.60;1.70;;;;;;;9.19;64.33;92201.09;5097300;28;20169;-44
2021/12/11 12:04:28;;;;;;;3.40;1.20;;;;;;;9.10;64.27;92199.75;5098337;28;20027;-45
2021/12/11 12:06:58;;;;;;;2.67;1.42;;;;;;;9.16;64.84;92202.22;5097471;28;20043;-45
2021/12/11 12:09:25;;;;;;;6.25;1.17;;;;;;;9.23;64.37;92201.41;5098135;28;20031;-45
2021/12/11 12:11:51;;;;;;;2.45;1.10;;;;;;;9.25;64.58;92211.88;5097507;28;20031;-47